Time;durP1;ratioP1;P1;durP2;ratioP2;P2;SDS_P1;SDS_P2;PMS_P1;PMS_P2;Temp;Humidity;BMP_temperature;BMP_pressure;BME280_temperature;BME280_humidity;BME280_pressure;Samples;Min_cycle;Max_cycle;Signal;HPM_P1;HPM_P2
2022/03/01 00:00:19;;;;;;;23.02;13.18;;;;;;;;;;4999210;28;20049;-55
2022/03/01 00:02:45;;;;;;;19.08;10.80;;;;;;;;;;4996518;28;20108;-56
2022/03/01 00:05:11;;;;;;;13.73;8.90;;;;;;;;;;4999824;28;20042;-57
2022/03/01 00:07:38;;;;;;;12.18;7.03;;;;;;;;;;4998452;28;20038;-57
2022/03/01 00:10:04;;;;;;;17.80;11.75;;;;;;;;;;4997597;28;20062;-54
2022/03/01 00:12:30;;;;;;;23.23;14.52;;;;;;;;;;5000658;28;20038;-53
2022/03/01 00:14:56;;;;;;;16.48;9.60;;;;;;;;;;4998359;28;20358;-56
2022/03/01 00:17:22;;;;;;;21.02;13.52;;;;;;;;;;4995189;28;20080;-57
2022/03/01 00:19:48;;;;;;;21.33;12.60;;;;;;;;;;4999879;28;20041;-56
2022/03/01 00:22:14;;;;;;;14.43;9.20;;;;;;;;;;5000080;28;20041;-57
2022/03/01 00:24:40;;;;;;;27.55;17.35;;;;;;;;;;4998614;28;20565;-57
2022/03/01 00:27:05;;;;;;;27.30;17.02;;;;;;;;;;4997627;28;20061;-56
2022/03/01 00:29:31;;;;;;;13.82;8.93;;;;;;;;;;4998893;28;20060;-57
2022/03/01 00:31:57;;;;;;;25.95;15.98;;;;;;;;;;5001154;28;20041;-57
2022/03/01 00:34:23;;;;;;;13.65;7.93;;;;;;;;;;5001991;28;20206;-55
2022/03/01 00:36:49;;;;;;;20.63;9.32;;;;;;;;;;5004590;28;20071;-56
2022/03/01 00:39:15;;;;;;;22.42;14.52;;;;;;;;;;5008138;28;20038;-56
2022/03/01 00:41:41;;;;;;;22.85;12.23;;;;;;;;;;5002567;28;20057;-56
2022/03/01 00:44:07;;;;;;;26.40;15.30;;;;;;;;;;5005404;28;20030;-54
2022/03/01 00:46:33;;;;;;;21.25;12.60;;;;;;;;;;5000236;28;20084;-56
2022/03/01 00:48:59;;;;;;;15.13;9.68;;;;;;;;;;5002910;28;20042;-54
2022/03/01 00:51:27;;;;;;;15.48;9.32;;;;;;;;;;5000903;28;20034;-55
2022/03/01 00:53:53;;;;;;;22.67;13.30;;;;;;;;;;5000486;28;20038;-56
2022/03/01 00:56:19;;;;;;;20.02;12.30;;;;;;;;;;4996566;28;20394;-56
2022/03/01 00:58:44;;;;;;;36.25;9.00;;;;;;;;;;5001627;28;20042;-57
2022/03/01 01:01:11;;;;;;;15.98;9.40;;;;;;;;;;5008471;28;20046;-55
2022/03/01 01:03:37;;;;;;;11.90;6.30;;;;;;;;;;4997115;28;20049;-56
2022/03/01 01:06:03;;;;;;;27.20;12.02;;;;;;;;;;4998510;28;20177;-55
2022/03/01 01:08:29;;;;;;;21.70;14.05;;;;;;;;;;5004035;28;20392;-55
2022/03/01 01:10:55;;;;;;;19.45;11.02;;;;;;;;;;4998879;28;20462;-56
2022/03/01 01:13:22;;;;;;;27.88;15.73;;;;;;;;;;4994535;28;20045;-56
2022/03/01 01:15:48;;;;;;;21.70;13.25;;;;;;;;;;4996516;28;20423;-56
2022/03/01 01:18:14;;;;;;;20.85;12.85;;;;;;;;;;4996510;28;20045;-54
2022/03/01 01:20:40;;;;;;;26.65;13.30;;;;;;;;;;4994132;28;20124;-57
2022/03/01 01:23:06;;;;;;;24.33;14.10;;;;;;;;;;4998166;28;20057;-56
2022/03/01 01:25:32;;;;;;;25.33;13.32;;;;;;;;;;4995092;28;20495;-56
2022/03/01 01:28:00;;;;;;;18.63;9.60;;;;;;;;;;4994019;28;20137;-56
2022/03/01 01:30:27;;;;;;;28.52;12.80;;;;;;;;;;4998654;28;20069;-54
2022/03/01 01:32:53;;;;;;;12.80;8.35;;;;;;;;;;4995948;28;20049;-56
2022/03/01 01:35:21;;;;;;;20.98;11.93;;;;;;;;;;4995423;28;20104;-56
2022/03/01 01:37:48;;;;;;;24.38;13.90;;;;;;;;;;4999166;28;20033;-53
2022/03/01 01:40:16;;;;;;;10.27;6.10;;;;;;;;;;4996362;28;20679;-53
2022/03/01 01:42:47;;;;;;;19.45;11.60;;;;;;;;;;4996763;28;20041;-54
2022/03/01 01:45:14;;;;;;;20.63;12.35;;;;;;;;;;4996541;28;20038;-55
2022/03/01 01:47:40;;;;;;;21.60;12.43;;;;;;;;;;4995219;28;20550;-55
2022/03/01 01:50:07;;;;;;;26.27;14.07;;;;;;;;;;4997228;28;20046;-56
2022/03/01 01:52:33;;;;;;;22.63;12.52;;;;;;;;;;4995722;28;20037;-55
2022/03/01 01:54:59;;;;;;;22.02;11.63;;;;;;;;;;4993758;28;21191;-56
2022/03/01 01:57:25;;;;;;;17.73;12.32;;;;;;;;;;4994826;28;20048;-54
2022/03/01 01:59:52;;;;;;;20.73;11.32;;;;;;;;;;4999418;28;20046;-56
2022/03/01 02:02:19;;;;;;;15.25;10.65;;;;;;;;;;4995625;28;20065;-56
2022/03/01 02:04:45;;;;;;;15.52;9.60;;;;;;;;;;4996193;28;20120;-55
2022/03/01 02:07:12;;;;;;;18.77;10.43;;;;;;;;;;4996267;28;20767;-53
2022/03/01 02:09:38;;;;;;;20.05;12.13;;;;;;;;;;4993761;28;20054;-56
2022/03/01 02:12:04;;;;;;;23.75;13.75;;;;;;;;;;4999150;28;20049;-54
2022/03/01 02:14:31;;;;;;;27.85;13.15;;;;;;;;;;5003410;28;20088;-56
2022/03/01 02:16:58;;;;;;;20.58;11.93;;;;;;;;;;4997539;28;20452;-55
2022/03/01 02:19:24;;;;;;;18.30;10.90;;;;;;;;;;4998366;28;20504;-55
2022/03/01 02:21:56;;;;;;;17.98;10.93;;;;;;;;;;5000154;28;20132;-56
2022/03/01 02:24:24;;;;;;;19.20;10.10;;;;;;;;;;5000916;28;20129;-56
2022/03/01 02:26:53;;;;;;;24.08;12.95;;;;;;;;;;5001190;28;20349;-55
2022/03/01 02:29:18;;;;;;;21.45;13.38;;;;;;;;;;4998393;28;20129;-56
2022/03/01 02:31:44;;;;;;;19.17;11.25;;;;;;;;;;4999573;28;20049;-53
2022/03/01 02:34:10;;;;;;;23.67;12.52;;;;;;;;;;4995617;28;20037;-56
2022/03/01 02:36:36;;;;;;;21.42;12.50;;;;;;;;;;5001197;28;20041;-55
2022/03/01 02:39:02;;;;;;;25.02;14.27;;;;;;;;;;4999586;28;20122;-54
2022/03/01 02:41:28;;;;;;;18.38;9.65;;;;;;;;;;5000125;28;20555;-58
2022/03/01 02:43:54;;;;;;;26.80;14.82;;;;;;;;;;5001108;28;20121;-56
2022/03/01 02:46:20;;;;;;;27.67;16.20;;;;;;;;;;5000411;28;20567;-56
2022/03/01 02:48:46;;;;;;;28.05;15.18;;;;;;;;;;5001870;28;20049;-55
2022/03/01 02:51:12;;;;;;;19.90;11.68;;;;;;;;;;5001223;28;20056;-56
2022/03/01 02:53:38;;;;;;;26.63;14.77;;;;;;;;;;4998983;28;20122;-56
2022/03/01 02:56:04;;;;;;;28.65;16.42;;;;;;;;;;4998825;28;20037;-56
2022/03/01 02:58:30;;;;;;;27.63;13.20;;;;;;;;;;5000450;28;20096;-55
2022/03/01 03:00:56;;;;;;;16.52;10.55;;;;;;;;;;4999132;28;20057;-54
2022/03/01 03:03:22;;;;;;;28.80;14.23;;;;;;;;;;4997007;28;20891;-54
2022/03/01 03:05:47;;;;;;;24.52;13.00;;;;;;;;;;4999066;28;20866;-55
2022/03/01 03:08:13;;;;;;;16.95;7.95;;;;;;;;;;5007827;28;20506;-54
2022/03/01 03:10:39;;;;;;;20.60;12.18;;;;;;;;;;4999650;28;20057;-57
2022/03/01 03:13:05;;;;;;;27.38;13.45;;;;;;;;;;5000377;28;20488;-56
2022/03/01 03:15:31;;;;;;;22.67;13.75;;;;;;;;;;4998471;28;20170;-57
2022/03/01 03:17:58;;;;;;;27.17;14.93;;;;;;;;;;4999807;28;20062;-55
2022/03/01 03:20:23;;;;;;;29.60;15.70;;;;;;;;;;4999388;28;20049;-55
2022/03/01 03:22:50;;;;;;;19.23;11.50;;;;;;;;;;5001382;28;20060;-56
2022/03/01 03:25:16;;;;;;;22.88;14.18;;;;;;;;;;4999963;28;20049;-55
2022/03/01 03:27:42;;;;;;;12.43;6.95;;;;;;;;;;4997643;28;20038;-54
2022/03/01 03:30:09;;;;;;;12.55;7.82;;;;;;;;;;4998483;28;21016;-56
2022/03/01 03:32:35;;;;;;;25.90;14.73;;;;;;;;;;5002542;28;20538;-53
2022/03/01 03:35:01;;;;;;;17.35;10.02;;;;;;;;;;5003744;28;20041;-58
2022/03/01 03:37:27;;;;;;;21.48;13.95;;;;;;;;;;4999323;28;20041;-55
2022/03/01 03:39:53;;;;;;;16.60;10.23;;;;;;;;;;5004714;28;20054;-55
2022/03/01 03:42:19;;;;;;;26.05;14.88;;;;;;;;;;5001607;28;20601;-57
2022/03/01 03:44:45;;;;;;;26.25;15.18;;;;;;;;;;5002073;28;20100;-56
2022/03/01 03:47:11;;;;;;;21.23;14.35;;;;;;;;;;5000464;28;20080;-56
2022/03/01 03:49:37;;;;;;;27.10;14.45;;;;;;;;;;4999251;28;20068;-56
2022/03/01 03:52:04;;;;;;;26.02;14.77;;;;;;;;;;5003853;28;20750;-55
2022/03/01 03:54:30;;;;;;;26.90;14.10;;;;;;;;;;5007493;28;20041;-54
2022/03/01 03:56:56;;;;;;;25.77;13.93;;;;;;;;;;4999232;28;20550;-56
2022/03/01 03:59:22;;;;;;;28.52;15.45;;;;;;;;;;5006166;28;20042;-52
2022/03/01 04:01:48;;;;;;;31.05;16.30;;;;;;;;;;5005242;28;22069;-57
2022/03/01 04:04:14;;;;;;;33.83;19.38;;;;;;;;;;5014690;28;20099;-56
2022/03/01 04:06:40;;;;;;;32.33;19.08;;;;;;;;;;5007592;28;20554;-58
2022/03/01 04:09:06;;;;;;;31.75;19.02;;;;;;;;;;5007485;28;20061;-55
2022/03/01 04:11:33;;;;;;;34.47;19.15;;;;;;;;;;5009674;28;20527;-57
2022/03/01 04:13:59;;;;;;;37.45;22.65;;;;;;;;;;5003932;28;20497;-56
2022/03/01 04:16:27;;;;;;;28.50;18.63;;;;;;;;;;5007720;28;20042;-57
2022/03/01 04:18:53;;;;;;;33.85;18.75;;;;;;;;;;5024305;28;20035;-56
2022/03/01 04:21:20;;;;;;;32.22;17.58;;;;;;;;;;5008005;28;20535;-56
2022/03/01 04:23:46;;;;;;;34.97;21.00;;;;;;;;;;5008934;28;20122;-57
2022/03/01 04:26:12;;;;;;;41.90;23.73;;;;;;;;;;4995216;28;20125;-57
2022/03/01 04:28:38;;;;;;;39.63;19.60;;;;;;;;;;5000264;28;20054;-56
2022/03/01 04:31:04;;;;;;;37.00;19.38;;;;;;;;;;4999788;28;20839;-55
2022/03/01 04:33:30;;;;;;;35.80;19.75;;;;;;;;;;5000852;28;20134;-56
2022/03/01 04:35:59;;;;;;;37.00;20.00;;;;;;;;;;5000005;28;20173;-56
2022/03/01 04:38:26;;;;;;;34.22;21.90;;;;;;;;;;4999427;28;20057;-56
2022/03/01 04:40:52;;;;;;;37.83;22.85;;;;;;;;;;5003739;28;20049;-54
2022/03/01 04:43:19;;;;;;;34.72;20.25;;;;;;;;;;4998911;28;20038;-56
2022/03/01 04:45:45;;;;;;;41.17;23.02;;;;;;;;;;4999362;28;20553;-56
2022/03/01 04:48:11;;;;;;;37.67;22.30;;;;;;;;;;5003544;28;20802;-56
2022/03/01 04:50:37;;;;;;;32.42;19.88;;;;;;;;;;4998941;28;20033;-54
2022/03/01 04:53:03;;;;;;;34.13;21.52;;;;;;;;;;5001249;28;20792;-57
2022/03/01 04:55:29;;;;;;;38.80;22.73;;;;;;;;;;4998179;28;20045;-56
2022/03/01 04:57:55;;;;;;;41.60;26.02;;;;;;;;;;4998128;28;20050;-58
2022/03/01 05:00:21;;;;;;;43.50;23.88;;;;;;;;;;5012323;28;20052;-55
2022/03/01 05:02:47;;;;;;;37.88;22.83;;;;;;;;;;5007681;28;20041;-56
2022/03/01 05:05:13;;;;;;;42.45;22.67;;;;;;;;;;5001742;28;20084;-57
2022/03/01 05:07:40;;;;;;;36.58;21.58;;;;;;;;;;5019225;28;20088;-56
2022/03/01 05:10:07;;;;;;;40.63;21.08;;;;;;;;;;5000407;28;20685;-56
2022/03/01 05:12:42;;;;;;;34.25;19.77;;;;;;;;;;4999392;28;20073;-56
2022/03/01 05:15:09;;;;;;;32.97;17.58;;;;;;;;;;4997806;28;20149;-56
2022/03/01 05:17:35;;;;;;;33.13;19.80;;;;;;;;;;4998411;28;20042;-56
2022/03/01 05:20:01;;;;;;;33.17;19.55;;;;;;;;;;4997477;28;20088;-56
2022/03/01 05:22:27;;;;;;;35.67;21.40;;;;;;;;;;5013445;28;20037;-56
2022/03/01 05:24:53;;;;;;;37.33;20.48;;;;;;;;;;4998295;28;20062;-56
2022/03/01 05:27:19;;;;;;;40.97;22.08;;;;;;;;;;4997129;28;20042;-56
2022/03/01 05:29:45;;;;;;;35.33;20.13;;;;;;;;;;5000582;28;20580;-57
2022/03/01 05:32:11;;;;;;;34.28;20.83;;;;;;;;;;5000144;28;20050;-56
2022/03/01 05:34:37;;;;;;;36.63;19.23;;;;;;;;;;4997428;28;20498;-55
2022/03/01 05:37:03;;;;;;;30.60;17.67;;;;;;;;;;5005168;28;20162;-56
2022/03/01 05:39:29;;;;;;;30.45;19.33;;;;;;;;;;4999620;28;20048;-56
2022/03/01 05:41:55;;;;;;;37.13;21.23;;;;;;;;;;4999700;28;20050;-57
2022/03/01 05:44:21;;;;;;;34.58;20.42;;;;;;;;;;4998348;28;20049;-56
2022/03/01 05:46:47;;;;;;;32.80;19.63;;;;;;;;;;5000119;28;21044;-56
2022/03/01 05:49:13;;;;;;;35.72;20.35;;;;;;;;;;4999637;28;20033;-55
2022/03/01 05:51:40;;;;;;;32.03;19.10;;;;;;;;;;4999394;28;20057;-55
2022/03/01 05:54:05;;;;;;;35.85;20.80;;;;;;;;;;5002265;28;20099;-57
2022/03/01 05:56:31;;;;;;;35.95;22.17;;;;;;;;;;5000656;28;20749;-56
2022/03/01 05:58:57;;;;;;;30.60;18.95;;;;;;;;;;5003675;28;20068;-57
2022/03/01 06:01:23;;;;;;;40.03;21.10;;;;;;;;;;5001251;28;20084;-57
2022/03/01 06:03:49;;;;;;;34.33;20.35;;;;;;;;;;5002105;28;20045;-54
2022/03/01 06:06:15;;;;;;;33.22;18.90;;;;;;;;;;5002039;28;20065;-56
2022/03/01 06:08:44;;;;;;;39.08;21.63;;;;;;;;;;5000617;28;20026;-54
2022/03/01 06:11:10;;;;;;;39.97;19.30;;;;;;;;;;5003649;28;20061;-55
2022/03/01 06:13:37;;;;;;;32.03;19.42;;;;;;;;;;5002365;28;20423;-54
2022/03/01 06:16:04;;;;;;;35.65;20.15;;;;;;;;;;5007606;28;20056;-53
2022/03/01 06:18:30;;;;;;;37.10;20.55;;;;;;;;;;5003231;28;20594;-56
2022/03/01 06:20:56;;;;;;;30.05;17.80;;;;;;;;;;5039727;28;20046;-56
2022/03/01 06:23:22;;;;;;;35.22;19.45;;;;;;;;;;5002636;28;20093;-54
2022/03/01 06:25:48;;;;;;;35.10;18.58;;;;;;;;;;5002195;28;20038;-54
2022/03/01 06:28:14;;;;;;;38.20;19.55;;;;;;;;;;5004246;28;20051;-55
2022/03/01 06:30:40;;;;;;;33.13;19.17;;;;;;;;;;5022136;28;20044;-56
2022/03/01 06:33:06;;;;;;;35.03;19.02;;;;;;;;;;5015981;28;20096;-55
2022/03/01 06:35:32;;;;;;;39.95;19.52;;;;;;;;;;5004172;28;20073;-57
2022/03/01 06:37:58;;;;;;;34.75;18.98;;;;;;;;;;5001135;28;20062;-56
2022/03/01 06:40:24;;;;;;;35.40;18.98;;;;;;;;;;4998679;28;20081;-56
2022/03/01 06:42:50;;;;;;;35.55;19.08;;;;;;;;;;5002710;28;20163;-56
2022/03/01 06:45:16;;;;;;;30.40;18.83;;;;;;;;;;5033659;28;20181;-56
2022/03/01 06:47:42;;;;;;;34.85;19.08;;;;;;;;;;5001801;28;20517;-57
2022/03/01 06:50:08;;;;;;;32.67;18.83;;;;;;;;;;5000568;28;20044;-57
2022/03/01 06:52:35;;;;;;;30.52;16.92;;;;;;;;;;5001959;28;20049;-55
2022/03/01 06:55:02;;;;;;;30.75;17.38;;;;;;;;;;4999307;28;20332;-54
2022/03/01 06:57:28;;;;;;;30.00;16.95;;;;;;;;;;5031944;28;20038;-56
2022/03/01 06:59:54;;;;;;;30.45;16.45;;;;;;;;;;5001108;28;20076;-55
2022/03/01 07:02:20;;;;;;;29.33;16.90;;;;;;;;;;5001600;28;20550;-56
2022/03/01 07:04:46;;;;;;;37.35;18.08;;;;;;;;;;5030386;28;20034;-55
2022/03/01 07:07:12;;;;;;;28.65;17.08;;;;;;;;;;5000041;28;20048;-58
2022/03/01 07:09:38;;;;;;;27.70;16.40;;;;;;;;;;4999680;28;20065;-58
2022/03/01 07:12:04;;;;;;;28.60;17.77;;;;;;;;;;5001592;28;20396;-54
2022/03/01 07:14:30;;;;;;;25.35;16.35;;;;;;;;;;5001764;28;20029;-56
2022/03/01 07:16:55;;;;;;;33.17;17.25;;;;;;;;;;5002495;28;20042;-56
2022/03/01 07:19:21;;;;;;;29.75;17.25;;;;;;;;;;5010199;28;20048;-57
2022/03/01 07:21:47;;;;;;;30.20;17.05;;;;;;;;;;5016322;28;20045;-54
2022/03/01 07:24:13;;;;;;;30.48;16.83;;;;;;;;;;5010829;28;20441;-56
2022/03/01 07:26:39;;;;;;;26.65;15.75;;;;;;;;;;5000532;28;20041;-55
2022/03/01 07:29:05;;;;;;;28.98;16.42;;;;;;;;;;4997550;28;20491;-54
2022/03/01 07:31:31;;;;;;;28.65;16.67;;;;;;;;;;5029455;28;20046;-56
2022/03/01 07:33:57;;;;;;;28.80;17.05;;;;;;;;;;5000414;28;20275;-57
2022/03/01 07:36:23;;;;;;;29.05;16.45;;;;;;;;;;4997923;28;20125;-55
2022/03/01 07:38:49;;;;;;;28.77;15.73;;;;;;;;;;5000261;28;20040;-55
2022/03/01 07:41:15;;;;;;;30.88;16.77;;;;;;;;;;4999960;28;20156;-54
2022/03/01 07:43:41;;;;;;;26.83;15.75;;;;;;;;;;4996815;28;20108;-55
2022/03/01 07:46:13;;;;;;;24.90;15.45;;;;;;;;;;4998401;28;20064;-56
2022/03/01 07:48:39;;;;;;;27.52;15.95;;;;;;;;;;4998809;28;20065;-53
2022/03/01 07:51:05;;;;;;;29.05;16.70;;;;;;;;;;4996652;28;20046;-54
2022/03/01 07:53:31;;;;;;;33.30;18.17;;;;;;;;;;5000063;28;20038;-53
2022/03/01 07:55:57;;;;;;;33.25;17.17;;;;;;;;;;4999302;28;20809;-54
2022/03/01 07:58:23;;;;;;;27.08;16.40;;;;;;;;;;5000750;28;20041;-57
2022/03/01 08:00:49;;;;;;;28.88;16.80;;;;;;;;;;4999919;28;20620;-53
2022/03/01 08:03:15;;;;;;;30.65;17.67;;;;;;;;;;5004553;28;20046;-56
2022/03/01 08:05:41;;;;;;;26.40;16.88;;;;;;;;;;4999142;28;20474;-57
2022/03/01 08:08:08;;;;;;;29.92;16.60;;;;;;;;;;5006683;28;20029;-57
2022/03/01 08:10:34;;;;;;;28.25;16.02;;;;;;;;;;5001166;28;20057;-55
2022/03/01 08:12:59;;;;;;;30.75;17.00;;;;;;;;;;5000570;28;20492;-56
2022/03/01 08:15:26;;;;;;;31.13;16.90;;;;;;;;;;4999087;28;20045;-56
2022/03/01 08:17:54;;;;;;;27.02;16.55;;;;;;;;;;5003456;28;20042;-54
2022/03/01 08:20:21;;;;;;;35.65;18.88;;;;;;;;;;5001075;28;20034;-55
2022/03/01 08:22:47;;;;;;;33.85;18.50;;;;;;;;;;4999728;28;20041;-56
2022/03/01 08:25:13;;;;;;;33.70;17.05;;;;;;;;;;5024742;28;21482;-56
2022/03/01 08:27:39;;;;;;;29.67;17.95;;;;;;;;;;4998190;28;20468;-56
2022/03/01 08:30:06;;;;;;;26.38;15.65;;;;;;;;;;5006901;28;20037;-57
2022/03/01 08:32:32;;;;;;;30.55;17.05;;;;;;;;;;5002482;28;20057;-56
2022/03/01 08:34:57;;;;;;;29.35;18.52;;;;;;;;;;4999124;28;20038;-55
2022/03/01 08:37:23;;;;;;;27.73;17.63;;;;;;;;;;4998714;28;20034;-56
2022/03/01 08:39:49;;;;;;;30.90;18.45;;;;;;;;;;5005899;28;20099;-56
2022/03/01 08:42:15;;;;;;;31.48;17.10;;;;;;;;;;4999766;28;20049;-56
2022/03/01 08:44:41;;;;;;;29.73;17.30;;;;;;;;;;5005500;28;20381;-55
2022/03/01 08:47:07;;;;;;;37.05;18.20;;;;;;;;;;5002468;28;20045;-56
2022/03/01 08:49:33;;;;;;;30.38;17.08;;;;;;;;;;5003296;28;20471;-56
2022/03/01 08:51:59;;;;;;;29.85;17.88;;;;;;;;;;5003602;28;20046;-56
2022/03/01 08:54:25;;;;;;;31.33;17.33;;;;;;;;;;5006457;28;20072;-52
2022/03/01 08:56:51;;;;;;;33.55;17.88;;;;;;;;;;5010596;28;20557;-56
2022/03/01 08:59:17;;;;;;;32.65;18.45;;;;;;;;;;5011009;28;20583;-56
2022/03/01 09:01:43;;;;;;;30.95;18.02;;;;;;;;;;5005673;28;20057;-56
2022/03/01 09:04:09;;;;;;;32.88;17.83;;;;;;;;;;5001662;28;20038;-56
2022/03/01 09:06:35;;;;;;;34.15;18.88;;;;;;;;;;5002460;28;20053;-56
2022/03/01 09:09:01;;;;;;;35.97;19.42;;;;;;;;;;5004557;28;20393;-56
2022/03/01 09:11:27;;;;;;;32.03;19.02;;;;;;;;;;5002312;28;20050;-57
2022/03/01 09:13:53;;;;;;;31.88;18.25;;;;;;;;;;5006464;28;20029;-57
2022/03/01 09:16:19;;;;;;;32.35;18.00;;;;;;;;;;5002518;28;20053;-57
2022/03/01 09:18:45;;;;;;;30.88;18.55;;;;;;;;;;4990978;28;20037;-57
2022/03/01 09:21:11;;;;;;;33.10;19.30;;;;;;;;;;4992378;28;20045;-55
2022/03/01 09:23:37;;;;;;;33.75;18.65;;;;;;;;;;4989897;28;20034;-56
2022/03/01 09:26:03;;;;;;;37.97;20.25;;;;;;;;;;4982518;28;20039;-55
2022/03/01 09:28:29;;;;;;;35.83;20.20;;;;;;;;;;4998110;28;20474;-56
2022/03/01 09:30:54;;;;;;;33.65;19.05;;;;;;;;;;4983146;28;20072;-56
2022/03/01 09:33:21;;;;;;;35.92;17.67;;;;;;;;;;4981851;28;20065;-55
2022/03/01 09:35:47;;;;;;;33.67;17.73;;;;;;;;;;4982667;28;20038;-55
2022/03/01 09:38:13;;;;;;;29.08;18.00;;;;;;;;;;4983136;28;20050;-55
2022/03/01 09:40:39;;;;;;;29.35;17.33;;;;;;;;;;4992830;28;20087;-56
2022/03/01 09:43:05;;;;;;;30.92;17.13;;;;;;;;;;5004642;28;20046;-56
2022/03/01 09:45:31;;;;;;;29.67;17.30;;;;;;;;;;5003183;28;20125;-56
2022/03/01 09:47:57;;;;;;;31.52;17.67;;;;;;;;;;5001827;28;20034;-57
2022/03/01 09:50:27;;;;;;;31.25;16.92;;;;;;;;;;5002952;28;20042;-56
2022/03/01 09:52:58;;;;;;;37.45;17.15;;;;;;;;;;5010394;28;20693;-57
2022/03/01 09:55:24;;;;;;;32.50;16.67;;;;;;;;;;5001493;28;20095;-56
2022/03/01 09:57:50;;;;;;;31.70;17.10;;;;;;;;;;5000038;28;20060;-57
2022/03/01 10:00:16;;;;;;;28.15;17.00;;;;;;;;;;5002489;28;20049;-56
2022/03/01 10:02:43;;;;;;;29.90;17.23;;;;;;;;;;5003786;28;20054;-54
2022/03/01 10:05:10;;;;;;;35.47;17.65;;;;;;;;;;5011163;28;20037;-53
2022/03/01 10:07:38;;;;;;;34.00;17.00;;;;;;;;;;5006355;28;20070;-55
2022/03/01 10:10:05;;;;;;;30.50;16.02;;;;;;;;;;5006136;28;20049;-56
2022/03/01 10:12:31;;;;;;;31.50;16.38;;;;;;;;;;5002565;28;20085;-57
2022/03/01 10:15:06;;;;;;;34.67;17.23;;;;;;;;;;5006550;28;20470;-55
2022/03/01 10:17:45;;;;;;;35.15;16.50;;;;;;;;;;5004925;28;20049;-54
2022/03/01 10:20:15;;;;;;;32.83;18.10;;;;;;;;;;5006419;28;20803;-55
2022/03/01 10:22:52;;;;;;;35.72;17.75;;;;;;;;;;5005130;28;20716;-54
2022/03/01 10:25:19;;;;;;;32.28;16.60;;;;;;;;;;5005200;28;20411;-55
2022/03/01 10:27:49;;;;;;;38.40;18.75;;;;;;;;;;5001667;28;20038;-56
2022/03/01 10:30:25;;;;;;;33.47;16.17;;;;;;;;;;5001913;28;20070;-56
2022/03/01 10:32:51;;;;;;;29.58;15.93;;;;;;;;;;5001951;28;20111;-54
2022/03/01 10:35:17;;;;;;;33.78;18.00;;;;;;;;;;5000273;28;20113;-55
2022/03/01 10:37:44;;;;;;;32.65;17.42;;;;;;;;;;5001092;28;20144;-56
2022/03/01 10:40:10;;;;;;;24.08;14.90;;;;;;;;;;5000564;28;20046;-56
2022/03/01 10:42:36;;;;;;;32.38;17.08;;;;;;;;;;5003336;28;20034;-56
2022/03/01 10:45:02;;;;;;;27.30;15.32;;;;;;;;;;5003834;28;20061;-56
2022/03/01 10:47:28;;;;;;;34.05;17.77;;;;;;;;;;5010778;28;20045;-56
2022/03/01 10:50:02;;;;;;;35.78;18.48;;;;;;;;;;5001276;28;20038;-56
2022/03/01 10:52:27;;;;;;;;;;;;;;;;;;4998385;28;20897;-56
2022/03/01 10:54:53;;;;;;;31.15;16.25;;;;;;;;;;5000582;28;19951;-57
2022/03/01 10:57:24;;;;;;;30.60;16.63;;;;;;;;;;5002033;28;20046;-56
2022/03/01 10:59:50;;;;;;;26.58;16.15;;;;;;;;;;5001770;28;20037;-54
2022/03/01 11:02:17;;;;;;;29.52;18.15;;;;;;;;;;5002869;28;20076;-56
2022/03/01 11:04:43;;;;;;;35.08;18.92;;;;;;;;;;5001407;28;20447;-56
2022/03/01 11:07:10;;;;;;;38.47;20.35;;;;;;;;;;5010994;28;20780;-56
2022/03/01 11:09:36;;;;;;;38.40;21.17;;;;;;;;;;5005743;28;21872;-55
2022/03/01 11:12:03;;;;;;;37.63;21.63;;;;;;;;;;5013570;28;20052;-57
2022/03/01 11:14:40;;;;;;;40.60;21.35;;;;;;;;;;4999058;28;20036;-56
2022/03/01 11:17:19;;;;;;;38.08;22.52;;;;;;;;;;4999059;28;20066;-56
2022/03/01 11:19:53;;;;;;;44.08;21.98;;;;;;;;;;4997816;28;20113;-56
2022/03/01 11:22:41;;;;;;;38.42;21.63;;;;;;;;;;5000359;28;20045;-56
2022/03/01 11:25:14;;;;;;;44.88;23.02;;;;;;;;;;5000398;28;20050;-56
2022/03/01 11:27:44;;;;;;;50.67;26.63;;;;;;;;;;4997575;28;20046;-57
2022/03/01 11:30:10;;;;;;;51.75;26.25;;;;;;;;;;4999731;28;20337;-57
2022/03/01 11:32:37;;;;;;;46.60;25.73;;;;;;;;;;4997398;28;20041;-57
2022/03/01 11:35:04;;;;;;;47.13;25.40;;;;;;;;;;4999160;28;20061;-57
2022/03/01 11:37:30;;;;;;;56.13;26.17;;;;;;;;;;4999621;28;20065;-56
2022/03/01 11:40:00;;;;;;;47.15;25.80;;;;;;;;;;5000327;28;20240;-56
2022/03/01 11:42:31;;;;;;;54.17;26.05;;;;;;;;;;4998311;28;21780;-55
2022/03/01 11:44:56;;;;;;;48.47;25.73;;;;;;;;;;4998450;28;20211;-56
2022/03/01 11:47:30;;;;;;;50.85;26.05;;;;;;;;;;4999047;28;20969;-57
2022/03/01 11:49:55;;;;;;;;;;;;;;;;;;4998239;28;21718;-57
2022/03/01 11:52:25;;;;;;;48.38;24.40;;;;;;;;;;4998191;28;19917;-56
2022/03/01 11:54:53;;;;;;;49.30;26.83;;;;;;;;;;5000327;28;20056;-56
2022/03/01 11:57:24;;;;;;;52.45;26.35;;;;;;;;;;5001290;28;20038;-55
2022/03/01 11:59:50;;;;;;;50.80;27.17;;;;;;;;;;5017934;28;20130;-57
2022/03/01 12:02:16;;;;;;;49.85;27.05;;;;;;;;;;5004047;28;20118;-57
2022/03/01 12:04:52;;;;;;;55.60;27.95;;;;;;;;;;5001370;28;20038;-55
2022/03/01 12:07:22;;;;;;;50.08;28.15;;;;;;;;;;5002124;28;20214;-56
2022/03/01 12:10:01;;;;;;;52.00;26.98;;;;;;;;;;5004049;28;20077;-55
2022/03/01 12:12:35;;;;;;;46.22;27.30;;;;;;;;;;5000217;28;21704;-56
2022/03/01 12:15:01;;;;;;;49.50;27.38;;;;;;;;;;5002408;28;20064;-54
2022/03/01 12:17:27;;;;;;;58.35;30.95;;;;;;;;;;5004398;28;20442;-57
2022/03/01 12:20:00;;;;;;;58.55;28.85;;;;;;;;;;5002452;28;20124;-56
2022/03/01 12:22:26;;;;;;;50.60;28.92;;;;;;;;;;4999695;28;20137;-54
2022/03/01 12:24:52;;;;;;;68.93;31.63;;;;;;;;;;4999478;28;20584;-55
2022/03/01 12:27:18;;;;;;;58.92;29.13;;;;;;;;;;5030949;28;20053;-56
2022/03/01 12:29:47;;;;;;;52.83;29.52;;;;;;;;;;4998473;28;20404;-54
2022/03/01 12:32:13;;;;;;;63.55;31.60;;;;;;;;;;4997805;28;20077;-56
2022/03/01 12:34:40;;;;;;;52.50;29.73;;;;;;;;;;4997980;28;20053;-55
2022/03/01 12:37:08;;;;;;;59.63;33.20;;;;;;;;;;5001008;28;20106;-56
2022/03/01 12:39:34;;;;;;;59.35;32.92;;;;;;;;;;4998011;28;20125;-55
2022/03/01 12:42:00;;;;;;;62.90;33.50;;;;;;;;;;5014618;28;20061;-57
2022/03/01 12:44:28;;;;;;;79.70;35.78;;;;;;;;;;4998409;28;20037;-56
2022/03/01 12:46:55;;;;;;;73.10;36.97;;;;;;;;;;4999755;28;20042;-55
2022/03/01 12:49:21;;;;;;;76.05;38.95;;;;;;;;;;4997832;28;20103;-55
2022/03/01 12:51:48;;;;;;;75.28;39.95;;;;;;;;;;4999565;28;21758;-54
2022/03/01 12:54:15;;;;;;;79.35;39.40;;;;;;;;;;5000165;28;20041;-56
2022/03/01 12:56:42;;;;;;;79.97;37.45;;;;;;;;;;4996632;28;20106;-56
2022/03/01 12:59:10;;;;;;;85.97;35.03;;;;;;;;;;4999162;28;20101;-56
2022/03/01 13:01:38;;;;;;;63.10;35.55;;;;;;;;;;4999020;28;20054;-57
2022/03/01 13:04:05;;;;;;;72.32;35.08;;;;;;;;;;4999540;28;20144;-58
2022/03/01 13:06:31;;;;;;;65.18;34.08;;;;;;;;;;4998846;28;20092;-56
2022/03/01 13:08:57;;;;;;;60.22;33.70;;;;;;;;;;4997189;28;20125;-54
2022/03/01 13:11:24;;;;;;;63.45;35.08;;;;;;;;;;4998754;28;20080;-58
2022/03/01 13:13:50;;;;;;;66.82;33.80;;;;;;;;;;5028264;28;20045;-57
2022/03/01 13:16:20;;;;;;;69.95;33.08;;;;;;;;;;4998752;28;20034;-55
2022/03/01 13:18:47;;;;;;;61.80;32.40;;;;;;;;;;5009335;28;20053;-53
2022/03/01 13:21:14;;;;;;;59.85;33.50;;;;;;;;;;5008235;28;20075;-56
2022/03/01 13:23:40;;;;;;;67.53;32.75;;;;;;;;;;5004443;28;20038;-56
2022/03/01 13:26:08;;;;;;;61.67;32.35;;;;;;;;;;5004178;28;20049;-55
2022/03/01 13:28:35;;;;;;;63.03;32.78;;;;;;;;;;4999044;28;20122;-55
2022/03/01 13:31:02;;;;;;;64.93;33.85;;;;;;;;;;4995337;28;20082;-57
2022/03/01 13:33:28;;;;;;;60.60;33.50;;;;;;;;;;4999359;28;20361;-55
2022/03/01 13:35:54;;;;;;;57.33;32.78;;;;;;;;;;4998094;28;20041;-54
2022/03/01 13:38:20;;;;;;;65.90;33.55;;;;;;;;;;5005942;28;20037;-54
2022/03/01 13:40:47;;;;;;;71.38;34.58;;;;;;;;;;5015121;28;20050;-55
2022/03/01 13:43:17;;;;;;;64.25;34.33;;;;;;;;;;5000916;28;20038;-56
2022/03/01 13:45:43;;;;;;;67.88;34.38;;;;;;;;;;4995718;28;20045;-52
2022/03/01 13:48:10;;;;;;;74.53;36.13;;;;;;;;;;4999793;28;20507;-55
2022/03/01 13:50:36;;;;;;;70.15;37.38;;;;;;;;;;4997673;28;20027;-55
2022/03/01 13:53:28;;;;;;;71.28;40.83;;;;;;;;;;4996188;28;20677;-53
2022/03/01 13:55:55;;;;;;;80.90;38.33;;;;;;;;;;4980032;28;20101;-55
2022/03/01 13:58:21;;;;;;;64.47;33.95;;;;;;;;;;4974587;28;20053;-54
2022/03/01 14:00:51;;;;;;;65.00;35.72;;;;;;;;;;4975344;28;20039;-54
2022/03/01 14:03:18;;;;;;;67.95;36.63;;;;;;;;;;4973318;28;20035;-52
2022/03/01 14:05:58;;;;;;;72.13;37.42;;;;;;;;;;4975372;28;20046;-52
2022/03/01 14:08:25;;;;;;;78.40;36.78;;;;;;;;;;4983698;28;20042;-54
2022/03/01 14:10:53;;;;;;;73.50;35.47;;;;;;;;;;4988353;28;20665;-56
2022/03/01 14:13:23;;;;;;;80.53;40.90;;;;;;;;;;4980894;28;20038;-54
2022/03/01 14:16:02;;;;;;;80.65;39.13;;;;;;;;;;4979668;28;20050;-55